sensor_id;sensor_type;location;lat;lon;timestamp;pressure;altitude;pressure_sealevel;temperature;humidity
38289;BME280;24092;53.370;-6.588;2023-03-03T00:00:51;102409.94;;;1.89;100.00
38289;BME280;24092;53.370;-6.588;2023-03-03T00:03:26;102408.99;;;1.88;100.00
38289;BME280;24092;53.370;-6.588;2023-03-03T00:06:12;102409.24;;;2.58;100.00
38289;BME280;24092;53.370;-6.588;2023-03-03T00:08:39;102405.01;;;-0.58;100.00
38289;BME280;24092;53.370;-6.588;2023-03-03T00:11:07;102407.22;;;-0.15;100.00
38289;BME280;24092;53.370;-6.588;2023-03-03T00:13:42;102405.44;;;1.02;100.00
38289;BME280;24092;53.370;-6.588;2023-03-03T00:16:14;102405.94;;;0.21;100.00
38289;BME280;24092;53.370;-6.588;2023-03-03T00:18:44;102411.29;;;0.89;100.00
38289;BME280;24092;53.370;-6.588;2023-03-03T00:21:23;102411.46;;;1.20;100.00
38289;BME280;24092;53.370;-6.588;2023-03-03T00:23:51;102415.99;;;1.42;100.00
38289;BME280;24092;53.370;-6.588;2023-03-03T00:26:21;102413.49;;;1.12;100.00
38289;BME280;24092;53.370;-6.588;2023-03-03T00:28:51;102412.03;;;0.19;100.00
38289;BME280;24092;53.370;-6.588;2023-03-03T00:31:20;102413.63;;;2.35;100.00
38289;BME280;24092;53.370;-6.588;2023-03-03T00:33:49;102413.81;;;-0.11;100.00
38289;BME280;24092;53.370;-6.588;2023-03-03T00:36:26;102415.21;;;0.74;100.00
38289;BME280;24092;53.370;-6.588;2023-03-03T00:38:56;102415.30;;;0.84;100.00
38289;BME280;24092;53.370;-6.588;2023-03-03T00:41:26;102415.66;;;-0.37;100.00
38289;BME280;24092;53.370;-6.588;2023-03-03T00:43:53;102417.10;;;1.52;100.00
38289;BME280;24092;53.370;-6.588;2023-03-03T00:46:22;102415.01;;;-0.19;100.00
38289;BME280;24092;53.370;-6.588;2023-03-03T00:48:50;102412.60;;;-0.90;100.00
38289;BME280;24092;53.370;-6.588;2023-03-03T00:51:26;102412.94;;;-0.02;100.00
38289;BME280;24092;53.370;-6.588;2023-03-03T00:53:54;102411.56;;;0.18;100.00
38289;BME280;24092;53.370;-6.588;2023-03-03T00:56:22;102406.19;;;2.65;100.00
38289;BME280;24092;53.370;-6.588;2023-03-03T00:58:50;102405.55;;;3.21;100.00
38289;BME280;24092;53.370;-6.588;2023-03-03T01:01:17;102405.53;;;2.43;100.00
38289;BME280;24092;53.370;-6.588;2023-03-03T01:03:45;102404.67;;;3.69;100.00
38289;BME280;24092;53.370;-6.588;2023-03-03T01:06:12;102402.72;;;2.06;100.00
38289;BME280;24092;53.370;-6.588;2023-03-03T01:08:40;102410.02;;;1.45;100.00
38289;BME280;24092;53.370;-6.588;2023-03-03T01:11:10;102407.52;;;-0.72;100.00
38289;BME280;24092;53.370;-6.588;2023-03-03T01:13:42;102406.55;;;0.34;100.00
38289;BME280;24092;53.370;-6.588;2023-03-03T01:16:10;102410.05;;;0.73;100.00
38289;BME280;24092;53.370;-6.588;2023-03-03T01:18:37;102408.23;;;0.32;100.00
38289;BME280;24092;53.370;-6.588;2023-03-03T01:21:05;102410.84;;;1.88;100.00
38289;BME280;24092;53.370;-6.588;2023-03-03T01:23:32;102410.56;;;2.21;100.00
38289;BME280;24092;53.370;-6.588;2023-03-03T01:26:00;102413.43;;;1.00;100.00
38289;BME280;24092;53.370;-6.588;2023-03-03T01:28:27;102412.43;;;-0.34;100.00
38289;BME280;24092;53.370;-6.588;2023-03-03T01:30:59;102418.82;;;0.24;100.00
38289;BME280;24092;53.370;-6.588;2023-03-03T01:33:26;102423.50;;;0.50;100.00
38289;BME280;24092;53.370;-6.588;2023-03-03T01:35:53;102421.56;;;2.63;100.00
38289;BME280;24092;53.370;-6.588;2023-03-03T01:38:20;102425.27;;;1.63;100.00
38289;BME280;24092;53.370;-6.588;2023-03-03T01:40:52;102426.72;;;0.59;100.00
38289;BME280;24092;53.370;-6.588;2023-03-03T01:43:19;102426.04;;;0.78;100.00
38289;BME280;24092;53.370;-6.588;2023-03-03T01:46:54;102424.82;;;2.86;100.00
38289;BME280;24092;53.370;-6.588;2023-03-03T01:49:27;102425.38;;;1.09;100.00
38289;BME280;24092;53.370;-6.588;2023-03-03T01:51:58;102428.22;;;1.95;100.00
38289;BME280;24092;53.370;-6.588;2023-03-03T01:54:29;102424.38;;;2.81;100.00
38289;BME280;24092;53.370;-6.588;2023-03-03T01:57:00;102429.98;;;1.46;100.00
38289;BME280;24092;53.370;-6.588;2023-03-03T01:59:30;102430.50;;;1.13;100.00
38289;BME280;24092;53.370;-6.588;2023-03-03T02:01:59;102427.82;;;2.15;100.00
38289;BME280;24092;53.370;-6.588;2023-03-03T02:04:26;102431.75;;;1.27;100.00
38289;BME280;24092;53.370;-6.588;2023-03-03T02:06:58;102432.15;;;0.76;100.00
38289;BME280;24092;53.370;-6.588;2023-03-03T02:09:31;102430.18;;;2.14;100.00
38289;BME280;24092;53.370;-6.588;2023-03-03T02:12:04;102423.87;;;2.41;100.00
38289;BME280;24092;53.370;-6.588;2023-03-03T02:14:31;102422.68;;;3.50;100.00
38289;BME280;24092;53.370;-6.588;2023-03-03T02:16:58;102419.72;;;3.92;100.00
38289;BME280;24092;53.370;-6.588;2023-03-03T02:19:32;102419.62;;;2.97;100.00
38289;BME280;24092;53.370;-6.588;2023-03-03T02:22:01;102418.98;;;2.34;100.00
38289;BME280;24092;53.370;-6.588;2023-03-03T02:24:34;102419.23;;;1.98;100.00
38289;BME280;24092;53.370;-6.588;2023-03-03T02:27:04;102420.57;;;2.40;100.00
38289;BME280;24092;53.370;-6.588;2023-03-03T02:29:31;102420.60;;;3.14;100.00
38289;BME280;24092;53.370;-6.588;2023-03-03T02:31:59;102423.37;;;1.43;100.00
38289;BME280;24092;53.370;-6.588;2023-03-03T02:34:26;102425.91;;;1.52;100.00
38289;BME280;24092;53.370;-6.588;2023-03-03T02:36:53;102427.10;;;1.18;100.00
38289;BME280;24092;53.370;-6.588;2023-03-03T02:39:21;102419.08;;;-0.18;100.00
38289;BME280;24092;53.370;-6.588;2023-03-03T02:41:52;102422.25;;;0.24;100.00
38289;BME280;24092;53.370;-6.588;2023-03-03T02:44:22;102422.13;;;-1.00;100.00
38289;BME280;24092;53.370;-6.588;2023-03-03T02:46:51;102424.62;;;-1.38;100.00
38289;BME280;24092;53.370;-6.588;2023-03-03T02:49:22;102423.83;;;-0.67;100.00
38289;BME280;24092;53.370;-6.588;2023-03-03T02:51:50;102422.79;;;-1.01;100.00
38289;BME280;24092;53.370;-6.588;2023-03-03T02:54:19;102420.56;;;0.11;100.00
38289;BME280;24092;53.370;-6.588;2023-03-03T02:56:47;102421.77;;;0.30;100.00
38289;BME280;24092;53.370;-6.588;2023-03-03T02:59:15;102421.87;;;1.68;100.00
38289;BME280;24092;53.370;-6.588;2023-03-03T03:01:43;102421.94;;;1.93;100.00
38289;BME280;24092;53.370;-6.588;2023-03-03T03:04:13;102420.63;;;1.36;100.00
38289;BME280;24092;53.370;-6.588;2023-03-03T03:06:41;102422.15;;;1.53;100.00
38289;BME280;24092;53.370;-6.588;2023-03-03T03:09:10;102423.09;;;1.51;100.00
38289;BME280;24092;53.370;-6.588;2023-03-03T03:11:38;102423.31;;;1.51;100.00
38289;BME280;24092;53.370;-6.588;2023-03-03T03:14:08;102420.28;;;1.93;100.00
38289;BME280;24092;53.370;-6.588;2023-03-03T03:16:36;102419.98;;;0.71;100.00
38289;BME280;24092;53.370;-6.588;2023-03-03T03:19:04;102421.04;;;2.20;100.00
38289;BME280;24092;53.370;-6.588;2023-03-03T03:21:31;102415.45;;;3.12;100.00
38289;BME280;24092;53.370;-6.588;2023-03-03T03:23:59;102416.88;;;2.85;100.00
38289;BME280;24092;53.370;-6.588;2023-03-03T03:26:27;102415.55;;;2.20;100.00
38289;BME280;24092;53.370;-6.588;2023-03-03T03:28:54;102417.30;;;0.52;100.00
38289;BME280;24092;53.370;-6.588;2023-03-03T03:31:22;102420.10;;;0.75;100.00
38289;BME280;24092;53.370;-6.588;2023-03-03T03:33:49;102416.23;;;0.31;100.00
38289;BME280;24092;53.370;-6.588;2023-03-03T03:36:16;102417.55;;;1.42;100.00
38289;BME280;24092;53.370;-6.588;2023-03-03T03:38:43;102416.18;;;1.52;100.00
38289;BME280;24092;53.370;-6.588;2023-03-03T03:41:12;102413.56;;;0.46;100.00
38289;BME280;24092;53.370;-6.588;2023-03-03T03:43:39;102412.11;;;0.20;100.00
38289;BME280;24092;53.370;-6.588;2023-03-03T03:46:07;102407.38;;;2.69;100.00
38289;BME280;24092;53.370;-6.588;2023-03-03T03:48:35;102410.12;;;1.81;100.00
38289;BME280;24092;53.370;-6.588;2023-03-03T03:51:03;102407.27;;;-0.57;100.00
38289;BME280;24092;53.370;-6.588;2023-03-03T03:53:30;102404.49;;;0.00;100.00
38289;BME280;24092;53.370;-6.588;2023-03-03T03:55:57;102402.54;;;1.94;100.00
38289;BME280;24092;53.370;-6.588;2023-03-03T03:58:25;102405.70;;;0.84;100.00
38289;BME280;24092;53.370;-6.588;2023-03-03T04:00:52;102410.42;;;0.86;100.00
38289;BME280;24092;53.370;-6.588;2023-03-03T04:03:20;102412.85;;;1.32;100.00
38289;BME280;24092;53.370;-6.588;2023-03-03T04:05:47;102409.45;;;2.59;100.00
38289;BME280;24092;53.370;-6.588;2023-03-03T04:08:15;102413.03;;;1.86;100.00
38289;BME280;24092;53.370;-6.588;2023-03-03T04:10:42;102406.36;;;1.97;100.00
38289;BME280;24092;53.370;-6.588;2023-03-03T04:13:08;102413.31;;;1.00;100.00
38289;BME280;24092;53.370;-6.588;2023-03-03T04:15:36;102410.73;;;2.28;100.00
38289;BME280;24092;53.370;-6.588;2023-03-03T04:18:03;102420.72;;;1.58;100.00
38289;BME280;24092;53.370;-6.588;2023-03-03T04:20:30;102415.63;;;2.97;100.00
38289;BME280;24092;53.370;-6.588;2023-03-03T04:22:57;102415.54;;;2.66;100.00
38289;BME280;24092;53.370;-6.588;2023-03-03T04:25:24;102421.40;;;1.15;100.00
38289;BME280;24092;53.370;-6.588;2023-03-03T04:27:51;102416.61;;;2.25;100.00
38289;BME280;24092;53.370;-6.588;2023-03-03T04:30:21;102417.15;;;2.14;100.00
38289;BME280;24092;53.370;-6.588;2023-03-03T04:32:48;102416.87;;;2.18;100.00
38289;BME280;24092;53.370;-6.588;2023-03-03T04:35:15;102411.64;;;3.24;100.00
38289;BME280;24092;53.370;-6.588;2023-03-03T04:37:42;102414.56;;;2.50;100.00
38289;BME280;24092;53.370;-6.588;2023-03-03T04:40:10;102420.13;;;-0.28;100.00
38289;BME280;24092;53.370;-6.588;2023-03-03T04:42:37;102420.11;;;1.57;100.00
38289;BME280;24092;53.370;-6.588;2023-03-03T04:45:06;102418.28;;;2.49;100.00
38289;BME280;24092;53.370;-6.588;2023-03-03T04:47:33;102417.91;;;3.42;100.00
38289;BME280;24092;53.370;-6.588;2023-03-03T04:50:00;102419.60;;;3.96;100.00
38289;BME280;24092;53.370;-6.588;2023-03-03T04:52:27;102422.07;;;3.07;100.00
38289;BME280;24092;53.370;-6.588;2023-03-03T04:54:55;102423.02;;;3.42;100.00
38289;BME280;24092;53.370;-6.588;2023-03-03T04:57:22;102418.99;;;5.02;100.00
38289;BME280;24092;53.370;-6.588;2023-03-03T04:59:50;102421.62;;;2.85;100.00
38289;BME280;24092;53.370;-6.588;2023-03-03T05:02:17;102418.26;;;4.41;100.00
38289;BME280;24092;53.370;-6.588;2023-03-03T05:04:45;102412.81;;;3.69;100.00
38289;BME280;24092;53.370;-6.588;2023-03-03T05:07:11;102411.49;;;1.80;100.00
38289;BME280;24092;53.370;-6.588;2023-03-03T05:09:39;102415.74;;;1.29;100.00
38289;BME280;24092;53.370;-6.588;2023-03-03T05:12:06;102418.19;;;0.44;100.00
38289;BME280;24092;53.370;-6.588;2023-03-03T05:14:33;102423.84;;;0.81;100.00
38289;BME280;24092;53.370;-6.588;2023-03-03T05:17:00;102424.83;;;0.58;100.00
38289;BME280;24092;53.370;-6.588;2023-03-03T05:19:28;102422.28;;;2.19;100.00
38289;BME280;24092;53.370;-6.588;2023-03-03T05:21:55;102420.20;;;2.76;100.00
38289;BME280;24092;53.370;-6.588;2023-03-03T05:24:23;102416.86;;;2.18;100.00
38289;BME280;24092;53.370;-6.588;2023-03-03T05:26:50;102416.55;;;2.54;100.00
38289;BME280;24092;53.370;-6.588;2023-03-03T05:29:17;102415.30;;;3.19;100.00
38289;BME280;24092;53.370;-6.588;2023-03-03T05:31:45;102411.69;;;2.08;100.00
38289;BME280;24092;53.370;-6.588;2023-03-03T05:34:12;102415.88;;;2.17;100.00
38289;BME280;24092;53.370;-6.588;2023-03-03T05:36:39;102423.47;;;1.61;100.00
38289;BME280;24092;53.370;-6.588;2023-03-03T05:39:06;102424.79;;;1.45;100.00
38289;BME280;24092;53.370;-6.588;2023-03-03T05:41:33;102423.37;;;1.91;100.00
38289;BME280;24092;53.370;-6.588;2023-03-03T05:44:00;102419.03;;;3.99;100.00
38289;BME280;24092;53.370;-6.588;2023-03-03T05:46:28;102415.69;;;4.31;100.00
38289;BME280;24092;53.370;-6.588;2023-03-03T05:48:55;102418.36;;;3.23;100.00
38289;BME280;24092;53.370;-6.588;2023-03-03T05:51:22;102421.65;;;1.65;100.00
38289;BME280;24092;53.370;-6.588;2023-03-03T05:53:49;102415.37;;;2.07;100.00
38289;BME280;24092;53.370;-6.588;2023-03-03T05:56:16;102418.46;;;1.71;100.00
38289;BME280;24092;53.370;-6.588;2023-03-03T05:58:44;102414.45;;;2.45;100.00
38289;BME280;24092;53.370;-6.588;2023-03-03T06:01:11;102418.36;;;1.44;100.00
38289;BME280;24092;53.370;-6.588;2023-03-03T06:03:38;102422.32;;;1.09;100.00
38289;BME280;24092;53.370;-6.588;2023-03-03T06:06:06;102422.55;;;0.55;100.00
38289;BME280;24092;53.370;-6.588;2023-03-03T06:08:33;102422.59;;;0.67;100.00
38289;BME280;24092;53.370;-6.588;2023-03-03T06:11:01;102423.69;;;1.30;100.00
38289;BME280;24092;53.370;-6.588;2023-03-03T06:13:28;102418.65;;;2.36;100.00
38289;BME280;24092;53.370;-6.588;2023-03-03T06:15:55;102418.91;;;2.52;100.00
38289;BME280;24092;53.370;-6.588;2023-03-03T06:18:22;102421.18;;;2.37;100.00
38289;BME280;24092;53.370;-6.588;2023-03-03T06:20:51;102420.66;;;1.70;100.00
38289;BME280;24092;53.370;-6.588;2023-03-03T06:23:18;102417.80;;;1.65;100.00
38289;BME280;24092;53.370;-6.588;2023-03-03T06:25:45;102412.58;;;3.28;100.00
38289;BME280;24092;53.370;-6.588;2023-03-03T06:28:13;102413.28;;;2.98;100.00
38289;BME280;24092;53.370;-6.588;2023-03-03T06:30:40;102412.87;;;2.41;100.00
38289;BME280;24092;53.370;-6.588;2023-03-03T06:33:07;102413.15;;;2.92;100.00
38289;BME280;24092;53.370;-6.588;2023-03-03T06:35:34;102418.46;;;1.38;100.00
38289;BME280;24092;53.370;-6.588;2023-03-03T06:38:02;102423.27;;;1.98;100.00
38289;BME280;24092;53.370;-6.588;2023-03-03T06:40:29;102425.79;;;0.89;100.00
38289;BME280;24092;53.370;-6.588;2023-03-03T06:42:56;102421.76;;;3.32;100.00
38289;BME280;24092;53.370;-6.588;2023-03-03T06:45:23;102426.53;;;1.72;100.00
38289;BME280;24092;53.370;-6.588;2023-03-03T06:47:50;102431.86;;;0.61;100.00
38289;BME280;24092;53.370;-6.588;2023-03-03T06:50:19;102428.04;;;2.76;100.00
38289;BME280;24092;53.370;-6.588;2023-03-03T06:52:46;102433.81;;;1.29;100.00
38289;BME280;24092;53.370;-6.588;2023-03-03T06:55:22;102435.73;;;2.10;100.00
38289;BME280;24092;53.370;-6.588;2023-03-03T06:57:49;102437.72;;;1.41;100.00
38289;BME280;24092;53.370;-6.588;2023-03-03T07:00:20;102439.76;;;2.49;100.00
38289;BME280;24092;53.370;-6.588;2023-03-03T07:02:55;102442.64;;;2.38;100.00
38289;BME280;24092;53.370;-6.588;2023-03-03T07:05:26;102441.45;;;1.04;100.00
38289;BME280;24092;53.370;-6.588;2023-03-03T07:07:54;102444.10;;;0.00;100.00
38289;BME280;24092;53.370;-6.588;2023-03-03T07:10:24;102446.94;;;0.90;100.00
38289;BME280;24092;53.370;-6.588;2023-03-03T07:12:51;102448.85;;;0.36;100.00
38289;BME280;24092;53.370;-6.588;2023-03-03T07:15:20;102449.50;;;0.94;100.00
38289;BME280;24092;53.370;-6.588;2023-03-03T07:17:52;102450.27;;;1.69;100.00
38289;BME280;24092;53.370;-6.588;2023-03-03T07:20:23;102449.69;;;1.81;100.00
38289;BME280;24092;53.370;-6.588;2023-03-03T07:22:51;102453.57;;;2.18;100.00
38289;BME280;24092;53.370;-6.588;2023-03-03T07:25:21;102453.89;;;2.79;100.00
38289;BME280;24092;53.370;-6.588;2023-03-03T07:27:55;102457.30;;;3.31;100.00
38289;BME280;24092;53.370;-6.588;2023-03-03T07:30:26;102455.38;;;2.86;100.00
38289;BME280;24092;53.370;-6.588;2023-03-03T07:32:54;102457.83;;;3.34;100.00
38289;BME280;24092;53.370;-6.588;2023-03-03T07:35:32;102459.17;;;2.32;100.00
38289;BME280;24092;53.370;-6.588;2023-03-03T07:38:02;102461.92;;;2.97;100.00
38289;BME280;24092;53.370;-6.588;2023-03-03T07:40:36;102462.78;;;2.74;100.00
38289;BME280;24092;53.370;-6.588;2023-03-03T07:43:38;102467.35;;;2.14;100.00
38289;BME280;24092;53.370;-6.588;2023-03-03T07:46:22;102469.61;;;2.88;100.00
38289;BME280;24092;53.370;-6.588;2023-03-03T07:48:51;102475.63;;;1.54;100.00
38289;BME280;24092;53.370;-6.588;2023-03-03T07:51:21;102477.31;;;-0.55;100.00
38289;BME280;24092;53.370;-6.588;2023-03-03T07:53:48;102476.98;;;0.88;100.00
38289;BME280;24092;53.370;-6.588;2023-03-03T07:56:23;102478.02;;;2.79;100.00
38289;BME280;24092;53.370;-6.588;2023-03-03T07:58:53;102482.77;;;1.95;100.00
38289;BME280;24092;53.370;-6.588;2023-03-03T08:01:39;102485.21;;;1.86;100.00
38289;BME280;24092;53.370;-6.588;2023-03-03T08:04:15;102481.52;;;-0.62;100.00
38289;BME280;24092;53.370;-6.588;2023-03-03T08:06:47;102483.78;;;1.50;100.00
38289;BME280;24092;53.370;-6.588;2023-03-03T08:09:42;102484.42;;;0.88;100.00
38289;BME280;24092;53.370;-6.588;2023-03-03T08:12:21;102483.10;;;1.01;100.00
38289;BME280;24092;53.370;-6.588;2023-03-03T08:14:51;102479.46;;;-0.69;100.00
38289;BME280;24092;53.370;-6.588;2023-03-03T08:17:21;102480.08;;;0.18;100.00
38289;BME280;24092;53.370;-6.588;2023-03-03T08:19:49;102484.14;;;-1.25;100.00
38289;BME280;24092;53.370;-6.588;2023-03-03T08:22:19;102483.74;;;-0.66;100.00
38289;BME280;24092;53.370;-6.588;2023-03-03T08:24:50;102483.97;;;-0.89;100.00
38289;BME280;24092;53.370;-6.588;2023-03-03T08:27:17;102491.63;;;-1.91;100.00
38289;BME280;24092;53.370;-6.588;2023-03-03T08:29:45;102487.17;;;-1.18;100.00
38289;BME280;24092;53.370;-6.588;2023-03-03T08:32:12;102492.73;;;-0.91;100.00
38289;BME280;24092;53.370;-6.588;2023-03-03T08:34:39;102504.41;;;-2.49;100.00
38289;BME280;24092;53.370;-6.588;2023-03-03T08:37:06;102515.38;;;-1.93;100.00
38289;BME280;24092;53.370;-6.588;2023-03-03T08:39:33;102518.08;;;-1.89;100.00
38289;BME280;24092;53.370;-6.588;2023-03-03T08:42:00;102521.22;;;-1.85;100.00
38289;BME280;24092;53.370;-6.588;2023-03-03T08:44:27;102523.90;;;-2.09;100.00
38289;BME280;24092;53.370;-6.588;2023-03-03T08:46:55;102517.76;;;-1.51;100.00
38289;BME280;24092;53.370;-6.588;2023-03-03T08:49:22;102526.96;;;-1.90;100.00
38289;BME280;24092;53.370;-6.588;2023-03-03T08:51:49;102528.82;;;-1.56;100.00
38289;BME280;24092;53.370;-6.588;2023-03-03T08:54:16;102532.27;;;-2.33;100.00
38289;BME280;24092;53.370;-6.588;2023-03-03T08:56:43;102534.87;;;-1.42;100.00
38289;BME280;24092;53.370;-6.588;2023-03-03T08:59:10;102530.90;;;-2.65;100.00
38289;BME280;24092;53.370;-6.588;2023-03-03T09:01:37;102532.38;;;-2.66;100.00
38289;BME280;24092;53.370;-6.588;2023-03-03T09:04:05;102533.15;;;-1.91;100.00
38289;BME280;24092;53.370;-6.588;2023-03-03T09:06:31;102535.22;;;-1.52;100.00
38289;BME280;24092;53.370;-6.588;2023-03-03T09:08:58;102538.99;;;-2.24;100.00
38289;BME280;24092;53.370;-6.588;2023-03-03T09:11:27;102539.20;;;-2.36;100.00
38289;BME280;24092;53.370;-6.588;2023-03-03T09:14:01;102543.59;;;-2.61;100.00
38289;BME280;24092;53.370;-6.588;2023-03-03T09:16:33;102547.50;;;-1.99;100.00
38289;BME280;24092;53.370;-6.588;2023-03-03T09:19:15;102550.23;;;-1.26;100.00
38289;BME280;24092;53.370;-6.588;2023-03-03T09:21:44;102556.82;;;-2.05;100.00
38289;BME280;24092;53.370;-6.588;2023-03-03T09:24:18;102557.07;;;-1.89;100.00
38289;BME280;24092;53.370;-6.588;2023-03-03T09:26:47;102555.56;;;-1.38;100.00
38289;BME280;24092;53.370;-6.588;2023-03-03T09:29:22;102559.10;;;-2.01;100.00
38289;BME280;24092;53.370;-6.588;2023-03-03T09:31:51;102562.87;;;-1.56;100.00
38289;BME280;24092;53.370;-6.588;2023-03-03T09:34:21;102560.33;;;-0.94;100.00
38289;BME280;24092;53.370;-6.588;2023-03-03T09:36:50;102568.90;;;-1.14;100.00
38289;BME280;24092;53.370;-6.588;2023-03-03T09:39:20;102570.61;;;-1.39;100.00
38289;BME280;24092;53.370;-6.588;2023-03-03T09:42:03;102568.62;;;-0.87;100.00
38289;BME280;24092;53.370;-6.588;2023-03-03T09:44:44;102572.14;;;-1.24;100.00
38289;BME280;24092;53.370;-6.588;2023-03-03T09:47:33;102572.09;;;-0.22;100.00
38289;BME280;24092;53.370;-6.588;2023-03-03T09:50:12;102571.19;;;-1.24;100.00
38289;BME280;24092;53.370;-6.588;2023-03-03T09:52:49;102576.74;;;-1.69;100.00
38289;BME280;24092;53.370;-6.588;2023-03-03T09:55:26;102574.56;;;-1.23;100.00
38289;BME280;24092;53.370;-6.588;2023-03-03T09:58:14;102576.50;;;-1.64;100.00
38289;BME280;24092;53.370;-6.588;2023-03-03T10:00:54;102574.64;;;-1.64;100.00
38289;BME280;24092;53.370;-6.588;2023-03-03T10:03:42;102574.36;;;0.83;100.00
38289;BME280;24092;53.370;-6.588;2023-03-03T10:06:19;102570.91;;;1.08;100.00
38289;BME280;24092;53.370;-6.588;2023-03-03T10:09:01;102569.68;;;0.17;100.00
38289;BME280;24092;53.370;-6.588;2023-03-03T10:11:38;102575.88;;;-1.11;100.00
38289;BME280;24092;53.370;-6.588;2023-03-03T10:14:23;102576.20;;;-1.62;100.00
38289;BME280;24092;53.370;-6.588;2023-03-03T10:17:03;102575.23;;;-1.24;100.00
38289;BME280;24092;53.370;-6.588;2023-03-03T10:19:39;102582.58;;;-1.25;100.00
38289;BME280;24092;53.370;-6.588;2023-03-03T10:22:18;102587.18;;;-1.78;100.00
38289;BME280;24092;53.370;-6.588;2023-03-03T10:24:57;102593.79;;;-1.44;100.00
38289;BME280;24092;53.370;-6.588;2023-03-03T10:27:37;102592.39;;;-0.70;100.00
38289;BME280;24092;53.370;-6.588;2023-03-03T10:30:13;102600.86;;;-1.33;100.00
38289;BME280;24092;53.370;-6.588;2023-03-03T10:32:48;102597.68;;;-0.89;100.00
38289;BME280;24092;53.370;-6.588;2023-03-03T10:35:46;102600.16;;;-1.12;100.00
38289;BME280;24092;53.370;-6.588;2023-03-03T10:38:28;102605.75;;;-1.14;100.00
38289;BME280;24092;53.370;-6.588;2023-03-03T10:41:16;102602.85;;;-0.95;100.00
38289;BME280;24092;53.370;-6.588;2023-03-03T10:43:56;102604.52;;;-1.27;100.00
38289;BME280;24092;53.370;-6.588;2023-03-03T10:46:39;102602.65;;;-0.64;100.00
38289;BME280;24092;53.370;-6.588;2023-03-03T10:49:25;102609.78;;;-1.49;100.00
38289;BME280;24092;53.370;-6.588;2023-03-03T10:52:06;102609.12;;;-1.21;100.00
38289;BME280;24092;53.370;-6.588;2023-03-03T10:54:51;102605.88;;;-1.15;100.00
38289;BME280;24092;53.370;-6.588;2023-03-03T10:57:27;102607.15;;;-0.59;100.00
38289;BME280;24092;53.370;-6.588;2023-03-03T11:00:06;102609.14;;;-0.78;100.00
38289;BME280;24092;53.370;-6.588;2023-03-03T11:02:47;102604.56;;;-0.05;100.00
38289;BME280;24092;53.370;-6.588;2023-03-03T11:05:26;102602.80;;;0.15;100.00
38289;BME280;24092;53.370;-6.588;2023-03-03T11:07:57;102608.18;;;-0.85;100.00
38289;BME280;24092;53.370;-6.588;2023-03-03T11:10:37;102604.81;;;0.37;100.00
38289;BME280;24092;53.370;-6.588;2023-03-03T11:13:12;102608.66;;;-1.07;100.00
38289;BME280;24092;53.370;-6.588;2023-03-03T11:15:52;102605.75;;;-1.45;100.00
38289;BME280;24092;53.370;-6.588;2023-03-03T11:18:30;102607.84;;;-1.36;100.00
38289;BME280;24092;53.370;-6.588;2023-03-03T11:21:07;102608.85;;;-1.31;100.00
38289;BME280;24092;53.370;-6.588;2023-03-03T11:23:54;102612.44;;;-1.77;100.00
38289;BME280;24092;53.370;-6.588;2023-03-03T11:26:33;102612.02;;;-1.12;100.00
38289;BME280;24092;53.370;-6.588;2023-03-03T11:29:15;102613.48;;;-0.38;100.00
38289;BME280;24092;53.370;-6.588;2023-03-03T11:31:52;102619.85;;;-1.12;100.00
38289;BME280;24092;53.370;-6.588;2023-03-03T11:34:42;102619.92;;;-1.42;100.00
38289;BME280;24092;53.370;-6.588;2023-03-03T11:37:18;102622.04;;;-1.15;100.00
38289;BME280;24092;53.370;-6.588;2023-03-03T11:39:49;102623.25;;;-1.01;100.00
38289;BME280;24092;53.370;-6.588;2023-03-03T11:42:24;102624.16;;;-1.46;100.00
38289;BME280;24092;53.370;-6.588;2023-03-03T11:44:56;102627.96;;;-1.49;100.00
38289;BME280;24092;53.370;-6.588;2023-03-03T11:47:30;102627.48;;;-1.16;100.00
38289;BME280;24092;53.370;-6.588;2023-03-03T11:50:00;102627.61;;;-0.60;100.00
38289;BME280;24092;53.370;-6.588;2023-03-03T11:52:35;102633.81;;;-1.28;100.00
38289;BME280;24092;53.370;-6.588;2023-03-03T11:55:10;102637.36;;;-1.29;100.00
38289;BME280;24092;53.370;-6.588;2023-03-03T11:57:42;102635.89;;;-0.80;100.00
38289;BME280;24092;53.370;-6.588;2023-03-03T12:00:20;102633.85;;;-0.99;100.00
38289;BME280;24092;53.370;-6.588;2023-03-03T12:03:01;102634.71;;;-1.39;100.00
38289;BME280;24092;53.370;-6.588;2023-03-03T12:05:38;102630.78;;;-1.38;100.00
38289;BME280;24092;53.370;-6.588;2023-03-03T12:08:16;102633.45;;;-1.28;100.00
38289;BME280;24092;53.370;-6.588;2023-03-03T12:10:51;102632.36;;;-1.15;100.00
38289;BME280;24092;53.370;-6.588;2023-03-03T12:13:25;102635.92;;;-0.99;100.00
38289;BME280;24092;53.370;-6.588;2023-03-03T12:16:03;102632.65;;;-0.76;100.00
38289;BME280;24092;53.370;-6.588;2023-03-03T12:18:44;102630.00;;;-0.73;100.00
38289;BME280;24092;53.370;-6.588;2023-03-03T12:21:28;102631.98;;;-1.25;100.00
38289;BME280;24092;53.370;-6.588;2023-03-03T12:24:11;102634.08;;;-0.73;100.00
38289;BME280;24092;53.370;-6.588;2023-03-03T12:26:49;102628.67;;;-1.37;100.00
38289;BME280;24092;53.370;-6.588;2023-03-03T12:29:25;102627.17;;;-1.31;100.00
38289;BME280;24092;53.370;-6.588;2023-03-03T12:31:58;102628.31;;;-1.48;100.00
38289;BME280;24092;53.370;-6.588;2023-03-03T12:34:34;102627.78;;;-1.51;100.00
38289;BME280;24092;53.370;-6.588;2023-03-03T12:37:16;102630.17;;;-1.10;100.00
38289;BME280;24092;53.370;-6.588;2023-03-03T12:39:54;102626.18;;;-1.06;100.00
38289;BME280;24092;53.370;-6.588;2023-03-03T12:42:36;102625.17;;;-1.51;100.00
38289;BME280;24092;53.370;-6.588;2023-03-03T12:45:20;102622.81;;;-1.43;100.00
38289;BME280;24092;53.370;-6.588;2023-03-03T12:47:52;102618.72;;;-1.26;100.00
38289;BME280;24092;53.370;-6.588;2023-03-03T12:50:28;102617.43;;;-1.30;100.00
38289;BME280;24092;53.370;-6.588;2023-03-03T12:53:06;102617.40;;;-1.53;100.00
38289;BME280;24092;53.370;-6.588;2023-03-03T12:55:45;102614.18;;;-1.56;100.00
38289;BME280;24092;53.370;-6.588;2023-03-03T12:58:25;102615.29;;;-1.68;100.00